sensor_id;sensor_type;location;lat;lon;timestamp;pressure;altitude;pressure_sealevel;temperature;humidity
12178;BME280;6152;48.728;9.256;2024-01-30T00:02:15;98392.56;;;2.80;100.00
12178;BME280;6152;48.728;9.256;2024-01-30T00:04:41;98391.72;;;2.79;100.00
12178;BME280;6152;48.728;9.256;2024-01-30T00:07:07;98387.44;;;2.77;100.00
12178;BME280;6152;48.728;9.256;2024-01-30T00:09:33;98387.41;;;2.80;100.00
12178;BME280;6152;48.728;9.256;2024-01-30T00:12:00;98393.44;;;2.77;100.00
12178;BME280;6152;48.728;9.256;2024-01-30T00:14:26;98391.75;;;2.76;100.00
12178;BME280;6152;48.728;9.256;2024-01-30T00:16:52;98391.75;;;2.76;100.00
12178;BME280;6152;48.728;9.256;2024-01-30T00:19:18;98396.06;;;2.74;100.00
12178;BME280;6152;48.728;9.256;2024-01-30T00:21:44;98396.06;;;2.73;100.00
12178;BME280;6152;48.728;9.256;2024-01-30T00:24:10;98396.91;;;2.73;100.00
12178;BME280;6152;48.728;9.256;2024-01-30T00:26:37;98398.63;;;2.73;100.00
12178;BME280;6152;48.728;9.256;2024-01-30T00:29:03;98394.38;;;2.72;100.00
12178;BME280;6152;48.728;9.256;2024-01-30T00:31:30;98390.94;;;2.71;100.00
12178;BME280;6152;48.728;9.256;2024-01-30T00:33:56;98396.09;;;2.70;100.00
12178;BME280;6152;48.728;9.256;2024-01-30T00:36:22;98387.53;;;2.71;100.00
12178;BME280;6152;48.728;9.256;2024-01-30T00:38:48;98392.63;;;2.74;100.00
12178;BME280;6152;48.728;9.256;2024-01-30T00:41:14;98396.91;;;2.75;100.00
12178;BME280;6152;48.728;9.256;2024-01-30T00:43:43;98401.19;;;2.73;100.00
12178;BME280;6152;48.728;9.256;2024-01-30T00:46:09;98390.94;;;2.70;100.00
12178;BME280;6152;48.728;9.256;2024-01-30T00:48:35;98396.09;;;2.70;100.00
12178;BME280;6152;48.728;9.256;2024-01-30T00:51:01;98393.50;;;2.71;100.00
12178;BME280;6152;48.728;9.256;2024-01-30T00:53:27;98389.22;;;2.72;100.00
12178;BME280;6152;48.728;9.256;2024-01-30T00:55:53;98391.75;;;2.76;100.00
12178;BME280;6152;48.728;9.256;2024-01-30T00:58:19;98392.59;;;2.77;100.00
12178;BME280;6152;48.728;9.256;2024-01-30T01:00:45;98394.31;;;2.78;100.00
12178;BME280;6152;48.728;9.256;2024-01-30T01:03:11;98396.06;;;2.76;100.00
12178;BME280;6152;48.728;9.256;2024-01-30T01:05:38;98397.78;;;2.74;100.00
12178;BME280;6152;48.728;9.256;2024-01-30T01:08:05;98390.91;;;2.73;100.00
12178;BME280;6152;48.728;9.256;2024-01-30T01:10:31;98395.19;;;2.75;100.00
12178;BME280;6152;48.728;9.256;2024-01-30T01:12:57;98405.44;;;2.77;100.00
12178;BME280;6152;48.728;9.256;2024-01-30T01:15:23;98405.44;;;2.77;100.00
12178;BME280;6152;48.728;9.256;2024-01-30T01:17:49;98404.63;;;2.75;100.00
12178;BME280;6152;48.728;9.256;2024-01-30T01:20:15;98396.94;;;2.72;100.00
12178;BME280;6152;48.728;9.256;2024-01-30T01:22:41;98402.13;;;2.67;100.00
12178;BME280;6152;48.728;9.256;2024-01-30T01:25:08;98396.16;;;2.65;100.00
12178;BME280;6152;48.728;9.256;2024-01-30T01:27:34;98400.44;;;2.63;100.00
12178;BME280;6152;48.728;9.256;2024-01-30T01:30:04;98392.75;;;2.60;100.00
12178;BME280;6152;48.728;9.256;2024-01-30T01:32:31;98397.06;;;2.57;100.00
12178;BME280;6152;48.728;9.256;2024-01-30T01:34:57;98402.22;;;2.55;100.00
12178;BME280;6152;48.728;9.256;2024-01-30T01:37:23;98390.25;;;2.52;100.00
12178;BME280;6152;48.728;9.256;2024-01-30T01:39:52;98396.25;;;2.48;100.00
12178;BME280;6152;48.728;9.256;2024-01-30T01:42:18;98392.88;;;2.46;100.00
12178;BME280;6152;48.728;9.256;2024-01-30T01:44:44;98396.28;;;2.45;100.00
12178;BME280;6152;48.728;9.256;2024-01-30T01:47:11;98392.03;;;2.43;100.00
12178;BME280;6152;48.728;9.256;2024-01-30T01:49:37;98395.44;;;2.45;100.00
12178;BME280;6152;48.728;9.256;2024-01-30T01:52:05;98391.19;;;2.42;100.00
12178;BME280;6152;48.728;9.256;2024-01-30T01:54:31;98394.59;;;2.41;100.00
12178;BME280;6152;48.728;9.256;2024-01-30T01:56:57;98401.47;;;2.39;100.00
12178;BME280;6152;48.728;9.256;2024-01-30T01:59:24;98391.22;;;2.39;100.00
12178;BME280;6152;48.728;9.256;2024-01-30T02:01:51;98393.81;;;2.36;100.00
12178;BME280;6152;48.728;9.256;2024-01-30T02:04:19;98390.41;;;2.33;100.00
12178;BME280;6152;48.728;9.256;2024-01-30T02:06:45;98389.56;;;2.29;100.00
12178;BME280;6152;48.728;9.256;2024-01-30T02:09:11;98395.59;;;2.27;100.00
12178;BME280;6152;48.728;9.256;2024-01-30T02:11:38;98396.47;;;2.21;100.00
12178;BME280;6152;48.728;9.256;2024-01-30T02:14:04;98389.69;;;2.17;100.00
12178;BME280;6152;48.728;9.256;2024-01-30T02:16:31;98395.69;;;2.13;100.00
12178;BME280;6152;48.728;9.256;2024-01-30T02:18:57;98400.81;;;2.12;100.00
12178;BME280;6152;48.728;9.256;2024-01-30T02:21:23;98398.28;;;2.07;100.00
12178;BME280;6152;48.728;9.256;2024-01-30T02:23:51;98399.19;;;2.01;100.00
12178;BME280;6152;48.728;9.256;2024-01-30T02:26:19;98394.06;;;1.97;100.00
12178;BME280;6152;48.728;9.256;2024-01-30T02:28:45;98395.78;;;1.95;100.00
12178;BME280;6152;48.728;9.256;2024-01-30T02:31:11;98394.97;;;1.87;100.00
12178;BME280;6152;48.728;9.256;2024-01-30T02:33:37;98399.28;;;1.80;100.00
12178;BME280;6152;48.728;9.256;2024-01-30T02:36:03;98399.34;;;1.76;100.00
12178;BME280;6152;48.728;9.256;2024-01-30T02:38:29;98403.63;;;1.71;100.00
12178;BME280;6152;48.728;9.256;2024-01-30T02:40:55;98403.66;;;1.63;100.00
12178;BME280;6152;48.728;9.256;2024-01-30T02:43:24;98396.00;;;1.57;100.00
12178;BME280;6152;48.728;9.256;2024-01-30T02:45:50;98402.00;;;1.55;100.00
12178;BME280;6152;48.728;9.256;2024-01-30T02:48:16;98396.03;;;1.51;100.00
12178;BME280;6152;48.728;9.256;2024-01-30T02:50:42;98400.31;;;1.47;100.00
12178;BME280;6152;48.728;9.256;2024-01-30T02:53:09;98400.34;;;1.44;100.00
12178;BME280;6152;48.728;9.256;2024-01-30T02:55:35;98401.19;;;1.40;100.00
12178;BME280;6152;48.728;9.256;2024-01-30T02:58:01;98399.50;;;1.36;100.00
12178;BME280;6152;48.728;9.256;2024-01-30T03:00:27;98393.53;;;1.37;100.00
12178;BME280;6152;48.728;9.256;2024-01-30T03:02:53;98391.81;;;1.33;100.00
12178;BME280;6152;48.728;9.256;2024-01-30T03:05:19;98394.41;;;1.30;100.00
12178;BME280;6152;48.728;9.256;2024-01-30T03:07:45;98392.69;;;1.29;100.00
12178;BME280;6152;48.728;9.256;2024-01-30T03:10:11;98396.09;;;1.28;100.00
12178;BME280;6152;48.728;9.256;2024-01-30T03:12:37;98390.16;;;1.23;100.00
12178;BME280;6152;48.728;9.256;2024-01-30T03:15:04;98392.72;;;1.22;100.00
12178;BME280;6152;48.728;9.256;2024-01-30T03:17:30;98397.84;;;1.26;100.00
12178;BME280;6152;48.728;9.256;2024-01-30T03:19:56;98392.69;;;1.32;100.00
12178;BME280;6152;48.728;9.256;2024-01-30T03:22:22;98400.41;;;1.26;100.00
12178;BME280;6152;48.728;9.256;2024-01-30T03:24:48;98397.84;;;1.22;100.00
12178;BME280;6152;48.728;9.256;2024-01-30T03:27:14;98395.28;;;1.22;100.00
12178;BME280;6152;48.728;9.256;2024-01-30T03:29:40;98398.72;;;1.24;100.00
12178;BME280;6152;48.728;9.256;2024-01-30T03:32:06;98395.28;;;1.22;100.00
12178;BME280;6152;48.728;9.256;2024-01-30T03:34:32;98402.13;;;1.20;100.00
12178;BME280;6152;48.728;9.256;2024-01-30T03:36:59;98387.59;;;1.19;100.00
12178;BME280;6152;48.728;9.256;2024-01-30T03:39:25;98396.13;;;1.22;100.00
12178;BME280;6152;48.728;9.256;2024-01-30T03:41:51;98402.09;;;1.21;100.00
12178;BME280;6152;48.728;9.256;2024-01-30T03:44:17;98402.13;;;1.20;100.00
12178;BME280;6152;48.728;9.256;2024-01-30T03:46:43;98399.56;;;1.15;100.00
12178;BME280;6152;48.728;9.256;2024-01-30T03:49:10;98403.84;;;1.12;100.00
12178;BME280;6152;48.728;9.256;2024-01-30T03:51:36;98396.19;;;1.10;100.00
12178;BME280;6152;48.728;9.256;2024-01-30T03:54:02;98394.44;;;1.11;100.00
12178;BME280;6152;48.728;9.256;2024-01-30T03:56:28;98398.72;;;1.07;100.00
12178;BME280;6152;48.728;9.256;2024-01-30T03:58:54;98403.88;;;1.04;100.00
12178;BME280;6152;48.728;9.256;2024-01-30T04:01:21;98395.34;;;1.02;100.00
12178;BME280;6152;48.728;9.256;2024-01-30T04:03:48;98400.47;;;0.99;100.00
12178;BME280;6152;48.728;9.256;2024-01-30T04:06:14;98403.03;;;0.96;100.00
12178;BME280;6152;48.728;9.256;2024-01-30T04:08:40;98399.63;;;0.94;100.00
12178;BME280;6152;48.728;9.256;2024-01-30T04:11:06;98406.44;;;0.90;100.00
12178;BME280;6152;48.728;9.256;2024-01-30T04:13:33;98403.91;;;0.87;100.00
12178;BME280;6152;48.728;9.256;2024-01-30T04:16:00;98398.78;;;0.86;100.00
12178;BME280;6152;48.728;9.256;2024-01-30T04:18:27;98408.16;;;0.87;100.00
12178;BME280;6152;48.728;9.256;2024-01-30T04:20:53;98401.34;;;0.84;100.00
12178;BME280;6152;48.728;9.256;2024-01-30T04:23:20;98397.94;;;0.82;100.00
12178;BME280;6152;48.728;9.256;2024-01-30T04:25:46;98399.66;;;0.79;100.00
12178;BME280;6152;48.728;9.256;2024-01-30T04:28:12;98391.97;;;0.76;100.00
12178;BME280;6152;48.728;9.256;2024-01-30T04:30:38;98400.50;;;0.73;100.00
12178;BME280;6152;48.728;9.256;2024-01-30T04:33:05;98391.13;;;0.72;100.00
12178;BME280;6152;48.728;9.256;2024-01-30T04:35:31;98388.56;;;0.68;100.00
12178;BME280;6152;48.728;9.256;2024-01-30T04:37:57;98391.97;;;0.67;100.00
12178;BME280;6152;48.728;9.256;2024-01-30T04:40:23;98391.13;;;0.66;100.00
12178;BME280;6152;48.728;9.256;2024-01-30T04:42:49;98391.97;;;0.64;100.00
12178;BME280;6152;48.728;9.256;2024-01-30T04:45:15;98388.59;;;0.62;100.00
12178;BME280;6152;48.728;9.256;2024-01-30T04:47:41;98394.53;;;0.59;100.00
12178;BME280;6152;48.728;9.256;2024-01-30T04:50:08;98397.13;;;0.58;100.00
12178;BME280;6152;48.728;9.256;2024-01-30T04:52:35;98396.25;;;0.54;100.00
12178;BME280;6152;48.728;9.256;2024-01-30T04:55:01;98395.41;;;0.50;100.00
12178;BME280;6152;48.728;9.256;2024-01-30T04:57:27;98402.22;;;0.48;100.00
12178;BME280;6152;48.728;9.256;2024-01-30T04:59:54;98402.22;;;0.45;100.00
12178;BME280;6152;48.728;9.256;2024-01-30T05:02:20;98410.78;;;0.44;100.00
12178;BME280;6152;48.728;9.256;2024-01-30T05:04:46;98411.63;;;0.46;100.00
12178;BME280;6152;48.728;9.256;2024-01-30T05:07:12;98405.63;;;0.49;100.00
12178;BME280;6152;48.728;9.256;2024-01-30T05:09:38;98403.09;;;0.46;100.00
12178;BME280;6152;48.728;9.256;2024-01-30T05:12:04;98401.38;;;0.42;100.00
12178;BME280;6152;48.728;9.256;2024-01-30T05:14:30;98404.81;;;0.41;100.00
12178;BME280;6152;48.728;9.256;2024-01-30T05:16:56;98410.75;;;0.38;100.00
12178;BME280;6152;48.728;9.256;2024-01-30T05:19:22;98411.63;;;0.37;100.00
12178;BME280;6152;48.728;9.256;2024-01-30T05:21:49;98408.22;;;0.37;100.00
12178;BME280;6152;48.728;9.256;2024-01-30T05:24:16;98407.34;;;0.36;100.00
12178;BME280;6152;48.728;9.256;2024-01-30T05:26:42;98408.19;;;0.35;100.00
12178;BME280;6152;48.728;9.256;2024-01-30T05:29:08;98410.75;;;0.32;100.00
12178;BME280;6152;48.728;9.256;2024-01-30T05:31:34;98408.19;;;0.29;100.00
12178;BME280;6152;48.728;9.256;2024-01-30T05:34:01;98407.34;;;0.29;100.00
12178;BME280;6152;48.728;9.256;2024-01-30T05:36:27;98419.31;;;0.27;100.00
12178;BME280;6152;48.728;9.256;2024-01-30T05:38:53;98411.63;;;0.27;100.00
12178;BME280;6152;48.728;9.256;2024-01-30T05:41:20;98415.88;;;0.26;100.00
12178;BME280;6152;48.728;9.256;2024-01-30T05:43:47;98415.88;;;0.26;100.00
12178;BME280;6152;48.728;9.256;2024-01-30T05:46:13;98409.06;;;0.25;100.00
12178;BME280;6152;48.728;9.256;2024-01-30T05:48:39;98409.94;;;0.27;100.00
12178;BME280;6152;48.728;9.256;2024-01-30T05:51:07;98414.16;;;0.25;100.00
12178;BME280;6152;48.728;9.256;2024-01-30T05:53:34;98418.44;;;0.25;100.00
12178;BME280;6152;48.728;9.256;2024-01-30T05:56:02;98421.00;;;0.23;100.00
12178;BME280;6152;48.728;9.256;2024-01-30T05:58:28;98411.63;;;0.24;100.00
12178;BME280;6152;48.728;9.256;2024-01-30T06:00:55;98407.34;;;0.24;100.00
12178;BME280;6152;48.728;9.256;2024-01-30T06:03:21;98417.59;;;0.27;100.00
12178;BME280;6152;48.728;9.256;2024-01-30T06:05:47;98417.56;;;0.24;100.00
12178;BME280;6152;48.728;9.256;2024-01-30T06:08:13;98425.25;;;0.24;100.00
12178;BME280;6152;48.728;9.256;2024-01-30T06:10:39;98421.84;;;0.22;100.00
12178;BME280;6152;48.728;9.256;2024-01-30T06:13:06;98416.75;;;0.24;100.00
12178;BME280;6152;48.728;9.256;2024-01-30T06:15:32;98423.56;;;0.23;100.00
12178;BME280;6152;48.728;9.256;2024-01-30T06:17:59;98415.00;;;0.21;100.00
12178;BME280;6152;48.728;9.256;2024-01-30T06:20:25;98415.00;;;0.21;100.00
12178;BME280;6152;48.728;9.256;2024-01-30T06:22:51;98414.16;;;0.19;100.00
12178;BME280;6152;48.728;9.256;2024-01-30T06:25:17;98417.56;;;0.18;100.00
12178;BME280;6152;48.728;9.256;2024-01-30T06:27:43;98420.13;;;0.18;100.00
12178;BME280;6152;48.728;9.256;2024-01-30T06:30:10;98419.28;;;0.16;100.00
12178;BME280;6152;48.728;9.256;2024-01-30T06:32:36;98415.03;;;0.17;100.00
12178;BME280;6152;48.728;9.256;2024-01-30T06:35:02;98421.00;;;0.17;100.00
12178;BME280;6152;48.728;9.256;2024-01-30T06:37:29;98423.56;;;0.20;100.00
12178;BME280;6152;48.728;9.256;2024-01-30T06:39:55;98421.00;;;0.19;100.00
12178;BME280;6152;48.728;9.256;2024-01-30T06:42:21;98424.41;;;0.19;100.00
12178;BME280;6152;48.728;9.256;2024-01-30T06:44:47;98421.00;;;0.20;100.00
12178;BME280;6152;48.728;9.256;2024-01-30T06:47:13;98423.53;;;0.19;100.00
12178;BME280;6152;48.728;9.256;2024-01-30T06:49:40;98423.53;;;0.16;100.00
12178;BME280;6152;48.728;9.256;2024-01-30T06:52:08;98427.81;;;0.15;100.00
12178;BME280;6152;48.728;9.256;2024-01-30T06:54:34;98432.06;;;0.15;100.00
12178;BME280;6152;48.728;9.256;2024-01-30T06:57:00;98426.09;;;0.14;100.00
12178;BME280;6152;48.728;9.256;2024-01-30T06:59:26;98428.66;;;0.13;100.00
12178;BME280;6152;48.728;9.256;2024-01-30T07:01:52;98427.81;;;0.12;100.00
12178;BME280;6152;48.728;9.256;2024-01-30T07:04:18;98427.81;;;0.12;100.00
12178;BME280;6152;48.728;9.256;2024-01-30T07:06:45;98438.06;;;0.14;100.00
12178;BME280;6152;48.728;9.256;2024-01-30T07:09:11;98439.75;;;0.13;100.00
12178;BME280;6152;48.728;9.256;2024-01-30T07:11:37;98440.59;;;0.12;100.00
12178;BME280;6152;48.728;9.256;2024-01-30T07:14:04;98443.16;;;0.15;100.00
12178;BME280;6152;48.728;9.256;2024-01-30T07:16:30;98451.69;;;0.14;100.00
12178;BME280;6152;48.728;9.256;2024-01-30T07:18:56;98436.38;;;0.20;100.00
12178;BME280;6152;48.728;9.256;2024-01-30T07:21:23;98439.75;;;0.25;100.00
12178;BME280;6152;48.728;9.256;2024-01-30T07:23:54;98444.03;;;0.28;100.00
12178;BME280;6152;48.728;9.256;2024-01-30T07:26:21;98442.34;;;0.34;100.00
12178;BME280;6152;48.728;9.256;2024-01-30T07:28:47;98442.34;;;0.37;100.00
12178;BME280;6152;48.728;9.256;2024-01-30T07:31:13;98448.31;;;0.42;100.00
12178;BME280;6152;48.728;9.256;2024-01-30T07:33:40;98446.63;;;0.47;100.00
12178;BME280;6152;48.728;9.256;2024-01-30T07:36:06;98453.47;;;0.55;100.00
12178;BME280;6152;48.728;9.256;2024-01-30T07:38:32;98464.53;;;0.57;100.00
12178;BME280;6152;48.728;9.256;2024-01-30T07:40:58;98459.44;;;0.64;100.00
12178;BME280;6152;48.728;9.256;2024-01-30T07:43:25;98459.44;;;0.70;100.00
12178;BME280;6152;48.728;9.256;2024-01-30T07:45:51;98451.72;;;0.76;100.00
12178;BME280;6152;48.728;9.256;2024-01-30T07:48:17;98456.03;;;0.82;100.00
12178;BME280;6152;48.728;9.256;2024-01-30T07:50:43;98450.88;;;0.86;100.00
12178;BME280;6152;48.728;9.256;2024-01-30T07:53:09;98457.72;;;0.92;100.00
12178;BME280;6152;48.728;9.256;2024-01-30T07:55:35;98455.97;;;1.00;100.00
12178;BME280;6152;48.728;9.256;2024-01-30T07:58:02;98450.00;;;1.07;100.00
12178;BME280;6152;48.728;9.256;2024-01-30T08:00:29;98452.53;;;1.18;100.00
12178;BME280;6152;48.728;9.256;2024-01-30T08:02:56;98453.41;;;1.27;100.00
12178;BME280;6152;48.728;9.256;2024-01-30T08:05:22;98461.06;;;1.29;100.00
12178;BME280;6152;48.728;9.256;2024-01-30T08:07:49;98457.63;;;1.36;100.00
12178;BME280;6152;48.728;9.256;2024-01-30T08:10:16;98465.31;;;1.43;100.00
12178;BME280;6152;48.728;9.256;2024-01-30T08:12:44;98459.28;;;1.55;100.00
12178;BME280;6152;48.728;9.256;2024-01-30T08:15:11;98447.25;;;1.66;100.00
12178;BME280;6152;48.728;9.256;2024-01-30T08:17:38;98451.50;;;1.78;100.00
12178;BME280;6152;48.728;9.256;2024-01-30T08:20:05;98453.97;;;1.94;100.00
12178;BME280;6152;48.728;9.256;2024-01-30T08:22:31;98446.22;;;2.05;100.00
12178;BME280;6152;48.728;9.256;2024-01-30T08:24:57;98453.88;;;2.16;100.00
12178;BME280;6152;48.728;9.256;2024-01-30T08:27:23;98448.72;;;2.20;100.00
12178;BME280;6152;48.728;9.256;2024-01-30T08:29:49;98454.63;;;2.31;100.00
12178;BME280;6152;48.728;9.256;2024-01-30T08:32:16;98447.78;;;2.30;100.00
12178;BME280;6152;48.728;9.256;2024-01-30T08:34:42;98449.47;;;2.34;100.00
12178;BME280;6152;48.728;9.256;2024-01-30T08:37:08;98446.78;;;2.49;100.00
12178;BME280;6152;48.728;9.256;2024-01-30T08:39:34;98448.47;;;2.53;100.00
12178;BME280;6152;48.728;9.256;2024-01-30T08:42:00;98448.34;;;2.70;100.00
12178;BME280;6152;48.728;9.256;2024-01-30T08:44:26;98440.41;;;2.94;100.00
12178;BME280;6152;48.728;9.256;2024-01-30T08:46:53;98446.16;;;3.21;100.00
12178;BME280;6152;48.728;9.256;2024-01-30T08:49:20;98448.41;;;3.52;100.00
12178;BME280;6152;48.728;9.256;2024-01-30T08:51:46;98448.00;;;3.86;100.00
12178;BME280;6152;48.728;9.256;2024-01-30T08:54:13;98444.19;;;4.14;100.00
12178;BME280;6152;48.728;9.256;2024-01-30T08:56:39;98449.84;;;4.40;100.00
12178;BME280;6152;48.728;9.256;2024-01-30T08:59:05;98457.91;;;4.73;100.00
12178;BME280;6152;48.728;9.256;2024-01-30T09:01:31;98455.03;;;4.91;100.00
12178;BME280;6152;48.728;9.256;2024-01-30T09:03:57;98456.47;;;5.07;100.00
12178;BME280;6152;48.728;9.256;2024-01-30T09:06:24;98459.66;;;5.23;100.00
12178;BME280;6152;48.728;9.256;2024-01-30T09:08:52;98463.66;;;5.39;100.00
12178;BME280;6152;48.728;9.256;2024-01-30T09:11:18;98459.28;;;5.42;100.00
12178;BME280;6152;48.728;9.256;2024-01-30T09:13:45;98462.72;;;5.44;100.00
12178;BME280;6152;48.728;9.256;2024-01-30T09:16:11;98468.34;;;5.65;100.00
12178;BME280;6152;48.728;9.256;2024-01-30T09:18:37;98462.84;;;5.80;100.00
12178;BME280;6152;48.728;9.256;2024-01-30T09:21:03;98470.53;;;5.83;100.00
12178;BME280;6152;48.728;9.256;2024-01-30T09:23:29;98471.22;;;5.94;100.00
12178;BME280;6152;48.728;9.256;2024-01-30T09:25:56;98475.38;;;6.01;100.00
12178;BME280;6152;48.728;9.256;2024-01-30T09:28:22;98474.84;;;6.27;100.00
12178;BME280;6152;48.728;9.256;2024-01-30T09:30:48;98465.53;;;6.56;100.00
12178;BME280;6152;48.728;9.256;2024-01-30T09:33:14;98464.88;;;6.85;100.00
12178;BME280;6152;48.728;9.256;2024-01-30T09:35:40;98461.88;;;7.00;100.00
12178;BME280;6152;48.728;9.256;2024-01-30T09:38:06;98467.78;;;7.39;100.00
12178;BME280;6152;48.728;9.256;2024-01-30T09:40:32;98465.69;;;7.86;100.00
12178;BME280;6152;48.728;9.256;2024-01-30T09:42:59;98459.25;;;8.28;100.00
12178;BME280;6152;48.728;9.256;2024-01-30T09:45:26;98466.50;;;8.46;100.00
12178;BME280;6152;48.728;9.256;2024-01-30T09:47:53;98465.47;;;9.06;100.00
12178;BME280;6152;48.728;9.256;2024-01-30T09:50:20;98458.97;;;9.69;100.00
12178;BME280;6152;48.728;9.256;2024-01-30T09:52:47;98465.44;;;10.05;95.77
12178;BME280;6152;48.728;9.256;2024-01-30T09:55:13;98468.53;;;10.16;91.91
12178;BME280;6152;48.728;9.256;2024-01-30T09:57:42;98464.09;;;10.18;87.41
12178;BME280;6152;48.728;9.256;2024-01-30T10:00:08;98464.19;;;9.92;86.63
12178;BME280;6152;48.728;9.256;2024-01-30T10:02:35;98468.22;;;9.76;90.26
12178;BME280;6152;48.728;9.256;2024-01-30T10:05:02;98463.34;;;9.91;90.51
12178;BME280;6152;48.728;9.256;2024-01-30T10:07:28;98469.31;;;9.70;88.01
12178;BME280;6152;48.728;9.256;2024-01-30T10:09:55;98464.91;;;9.47;91.65
12178;BME280;6152;48.728;9.256;2024-01-30T10:12:23;98467.91;;;9.35;97.59
12178;BME280;6152;48.728;9.256;2024-01-30T10:14:49;98465.59;;;9.77;96.49
12178;BME280;6152;48.728;9.256;2024-01-30T10:17:15;98466.53;;;10.68;87.47
12178;BME280;6152;48.728;9.256;2024-01-30T10:19:42;98468.63;;;11.23;77.36
12178;BME280;6152;48.728;9.256;2024-01-30T10:22:09;98452.34;;;11.97;72.70
12178;BME280;6152;48.728;9.256;2024-01-30T10:24:35;98457.84;;;12.30;67.47
12178;BME280;6152;48.728;9.256;2024-01-30T10:27:01;98457.41;;;12.39;66.67
12178;BME280;6152;48.728;9.256;2024-01-30T10:29:28;98462.47;;;12.05;67.93
12178;BME280;6152;48.728;9.256;2024-01-30T10:32:04;98456.16;;;11.70;70.85
12178;BME280;6152;48.728;9.256;2024-01-30T10:34:31;98457.41;;;11.41;71.64
12178;BME280;6152;48.728;9.256;2024-01-30T10:37:08;98466.13;;;11.20;72.46
12178;BME280;6152;48.728;9.256;2024-01-30T10:39:45;98459.63;;;11.10;74.31
12178;BME280;6152;48.728;9.256;2024-01-30T10:42:17;98455.00;;;10.95;74.37
12178;BME280;6152;48.728;9.256;2024-01-30T10:44:47;98453.44;;;10.47;77.47
12178;BME280;6152;48.728;9.256;2024-01-30T10:47:28;98451.72;;;10.25;83.59
12178;BME280;6152;48.728;9.256;2024-01-30T10:49:55;98450.38;;;9.90;88.45
12178;BME280;6152;48.728;9.256;2024-01-30T10:52:23;98451.22;;;9.42;95.36
12178;BME280;6152;48.728;9.256;2024-01-30T10:54:54;98450.72;;;9.06;100.00
12178;BME280;6152;48.728;9.256;2024-01-30T10:57:23;98448.06;;;9.34;100.00
12178;BME280;6152;48.728;9.256;2024-01-30T10:59:53;98442.69;;;9.63;98.30
12178;BME280;6152;48.728;9.256;2024-01-30T11:02:20;98441.53;;;9.47;97.41
12178;BME280;6152;48.728;9.256;2024-01-30T11:04:49;98439.72;;;9.49;97.09
12178;BME280;6152;48.728;9.256;2024-01-30T11:07:23;98440.34;;;9.56;97.48
12178;BME280;6152;48.728;9.256;2024-01-30T11:10:07;98438.63;;;9.55;97.34
12178;BME280;6152;48.728;9.256;2024-01-30T11:12:39;98434.84;;;9.65;96.61
12178;BME280;6152;48.728;9.256;2024-01-30T11:15:14;98440.28;;;10.05;96.08
12178;BME280;6152;48.728;9.256;2024-01-30T11:22:46;98437.09;;;10.65;88.02
12178;BME280;6152;48.728;9.256;2024-01-30T11:25:17;98435.47;;;10.85;84.08
12178;BME280;6152;48.728;9.256;2024-01-30T11:27:44;98437.78;;;10.71;82.22
12178;BME280;6152;48.728;9.256;2024-01-30T11:30:20;98437.84;;;10.47;85.58
12178;BME280;6152;48.728;9.256;2024-01-30T11:33:05;98433.69;;;10.20;90.68
12178;BME280;6152;48.728;9.256;2024-01-30T11:35:34;98433.03;;;9.90;91.84
12178;BME280;6152;48.728;9.256;2024-01-30T11:38:01;98427.31;;;9.57;97.89
12178;BME280;6152;48.728;9.256;2024-01-30T11:40:31;98431.25;;;9.44;100.00
12178;BME280;6152;48.728;9.256;2024-01-30T11:42:59;98424.47;;;9.40;100.00
12178;BME280;6152;48.728;9.256;2024-01-30T11:45:27;98422.66;;;9.42;100.00
12178;BME280;6152;48.728;9.256;2024-01-30T11:47:54;98424.34;;;9.43;100.00
12178;BME280;6152;48.728;9.256;2024-01-30T11:50:20;98419.28;;;9.63;100.00
12178;BME280;6152;48.728;9.256;2024-01-30T11:52:47;98420.81;;;9.69;100.00
12178;BME280;6152;48.728;9.256;2024-01-30T11:55:15;98420.88;;;9.68;100.00
12178;BME280;6152;48.728;9.256;2024-01-30T11:57:41;98412.00;;;9.73;100.00
12178;BME280;6152;48.728;9.256;2024-01-30T12:00:14;98406.38;;;9.85;100.00
12178;BME280;6152;48.728;9.256;2024-01-30T12:02:41;98402.56;;;9.71;100.00
12178;BME280;6152;48.728;9.256;2024-01-30T12:05:08;98398.09;;;9.74;100.00
12178;BME280;6152;48.728;9.256;2024-01-30T12:07:35;98407.41;;;9.80;100.00
12178;BME280;6152;48.728;9.256;2024-01-30T12:10:02;98408.78;;;9.90;100.00
12178;BME280;6152;48.728;9.256;2024-01-30T12:12:29;98401.25;;;10.05;100.00
12178;BME280;6152;48.728;9.256;2024-01-30T12:14:56;98398.53;;;10.08;100.00
12178;BME280;6152;48.728;9.256;2024-01-30T12:20:04;98387.16;;;10.11;100.00
12178;BME280;6152;48.728;9.256;2024-01-30T12:22:31;98387.53;;;10.25;100.00
12178;BME280;6152;48.728;9.256;2024-01-30T12:24:57;98386.13;;;10.38;100.00
12178;BME280;6152;48.728;9.256;2024-01-30T12:27:24;98385.34;;;10.36;100.00
12178;BME280;6152;48.728;9.256;2024-01-30T12:29:56;98384.75;;;10.51;100.00
12178;BME280;6152;48.728;9.256;2024-01-30T12:32:23;98386.13;;;10.82;99.03
12178;BME280;6152;48.728;9.256;2024-01-30T12:34:50;98384.63;;;11.37;95.16
12178;BME280;6152;48.728;9.256;2024-01-30T12:37:16;98372.78;;;11.69;85.20
12178;BME280;6152;48.728;9.256;2024-01-30T12:39:48;98369.34;;;11.87;83.53
12178;BME280;6152;48.728;9.256;2024-01-30T12:42:15;98371.06;;;11.88;83.16
12178;BME280;6152;48.728;9.256;2024-01-30T12:44:42;98370.31;;;11.86;79.93
12178;BME280;6152;48.728;9.256;2024-01-30T12:47:09;98362.72;;;11.80;81.29
12178;BME280;6152;48.728;9.256;2024-01-30T12:49:36;98358.06;;;11.86;83.17
12178;BME280;6152;48.728;9.256;2024-01-30T12:52:02;98368.97;;;11.96;83.40
12178;BME280;6152;48.728;9.256;2024-01-30T12:54:29;98361.47;;;12.07;83.73
12178;BME280;6152;48.728;9.256;2024-01-30T12:56:55;98372.97;;;12.57;79.05
12178;BME280;6152;48.728;9.256;2024-01-30T12:59:22;98367.16;;;13.04;74.49
12178;BME280;6152;48.728;9.256;2024-01-30T13:01:49;98369.47;;;13.44;70.81
12178;BME280;6152;48.728;9.256;2024-01-30T13:04:15;98373.44;;;13.84;67.98
12178;BME280;6152;48.728;9.256;2024-01-30T13:06:42;98374.22;;;14.17;64.65
12178;BME280;6152;48.728;9.256;2024-01-30T13:09:08;98366.88;;;14.55;62.96
12178;BME280;6152;48.728;9.256;2024-01-30T13:11:35;98374.25;;;14.94;61.38
12178;BME280;6152;48.728;9.256;2024-01-30T13:14:01;98376.47;;;15.16;58.76
12178;BME280;6152;48.728;9.256;2024-01-30T13:16:27;98371.16;;;15.61;58.92
12178;BME280;6152;48.728;9.256;2024-01-30T13:18:54;98370.19;;;15.91;57.66